sensor_id;sensor_type;location;lat;lon;timestamp;pressure;altitude;pressure_sealevel;temperature;humidity
35577;BME280;21680;52.400;16.920;2023-04-08T00:00:54;101118.63;;;5.65;94.73
35577;BME280;21680;52.400;16.920;2023-04-08T00:03:20;101118.32;;;5.62;94.86
35577;BME280;21680;52.400;16.920;2023-04-08T00:05:45;101124.92;;;5.58;94.86
35577;BME280;21680;52.400;16.920;2023-04-08T00:08:11;101127.98;;;5.55;94.75
35577;BME280;21680;52.400;16.920;2023-04-08T00:10:37;101129.28;;;5.51;94.84
35577;BME280;21680;52.400;16.920;2023-04-08T00:13:03;101131.45;;;5.48;94.74
35577;BME280;21680;52.400;16.920;2023-04-08T00:15:31;101133.61;;;5.46;94.67
35577;BME280;21680;52.400;16.920;2023-04-08T00:17:56;101134.55;;;5.42;94.76
35577;BME280;21680;52.400;16.920;2023-04-08T00:20:22;101138.85;;;5.40;94.78
35577;BME280;21680;52.400;16.920;2023-04-08T00:22:48;101149.16;;;5.37;94.83
35577;BME280;21680;52.400;16.920;2023-04-08T00:25:13;101157.00;;;5.35;94.62
35577;BME280;21680;52.400;16.920;2023-04-08T00:27:38;101161.10;;;5.33;94.70
35577;BME280;21680;52.400;16.920;2023-04-08T00:30:04;101155.06;;;5.34;94.80
35577;BME280;21680;52.400;16.920;2023-04-08T00:32:30;101155.06;;;5.34;94.86
35577;BME280;21680;52.400;16.920;2023-04-08T00:34:55;101160.92;;;5.33;94.98
35577;BME280;21680;52.400;16.920;2023-04-08T00:37:21;101165.53;;;5.33;94.80
35577;BME280;21680;52.400;16.920;2023-04-08T00:39:47;101161.09;;;5.33;94.71
35577;BME280;21680;52.400;16.920;2023-04-08T00:42:12;101160.73;;;5.33;94.77
35577;BME280;21680;52.400;16.920;2023-04-08T00:44:37;101164.49;;;5.30;94.68
35577;BME280;21680;52.400;16.920;2023-04-08T00:47:03;101164.17;;;5.28;94.85
35577;BME280;21680;52.400;16.920;2023-04-08T00:49:31;101163.86;;;5.25;94.58
35577;BME280;21680;52.400;16.920;2023-04-08T00:51:58;101165.35;;;5.20;94.81
35577;BME280;21680;52.400;16.920;2023-04-08T00:54:23;101169.33;;;5.16;94.65
35577;BME280;21680;52.400;16.920;2023-04-08T00:56:48;101166.70;;;5.13;94.75
35577;BME280;21680;52.400;16.920;2023-04-08T00:59:17;101165.33;;;5.10;94.74
35577;BME280;21680;52.400;16.920;2023-04-08T01:07:20;101175.91;;;5.00;94.84
35577;BME280;21680;52.400;16.920;2023-04-08T01:09:53;101178.80;;;4.96;94.59
35577;BME280;21680;52.400;16.920;2023-04-08T01:12:23;101180.79;;;4.92;94.81
35577;BME280;21680;52.400;16.920;2023-04-08T01:14:56;101183.48;;;4.88;94.71
35577;BME280;21680;52.400;16.920;2023-04-08T01:17:29;101188.48;;;4.84;94.60
35577;BME280;21680;52.400;16.920;2023-04-08T01:19:56;101192.58;;;4.82;94.84
35577;BME280;21680;52.400;16.920;2023-04-08T01:22:28;101194.20;;;4.80;94.76
35577;BME280;21680;52.400;16.920;2023-04-08T01:25:01;101196.70;;;4.77;94.78
35577;BME280;21680;52.400;16.920;2023-04-08T01:27:30;101198.67;;;4.75;94.75
35577;BME280;21680;52.400;16.920;2023-04-08T01:29:57;101199.06;;;4.72;94.74
35577;BME280;21680;52.400;16.920;2023-04-08T01:32:24;101200.52;;;4.68;94.66
35577;BME280;21680;52.400;16.920;2023-04-08T01:34:52;101202.14;;;4.66;94.81
35577;BME280;21680;52.400;16.920;2023-04-08T01:37:19;101202.69;;;4.64;94.68
35577;BME280;21680;52.400;16.920;2023-04-08T01:39:45;101203.97;;;4.60;94.55
35577;BME280;21680;52.400;16.920;2023-04-08T01:42:12;101205.95;;;4.56;94.71
35577;BME280;21680;52.400;16.920;2023-04-08T01:44:39;101207.92;;;4.52;94.63
35577;BME280;21680;52.400;16.920;2023-04-08T01:47:05;101211.33;;;4.49;94.66
35577;BME280;21680;52.400;16.920;2023-04-08T01:49:31;101214.55;;;4.45;94.73
35577;BME280;21680;52.400;16.920;2023-04-08T01:51:57;101214.75;;;4.42;94.56
35577;BME280;21680;52.400;16.920;2023-04-08T01:54:23;101217.08;;;4.40;94.60
35577;BME280;21680;52.400;16.920;2023-04-08T01:56:50;101219.22;;;4.37;94.61
35577;BME280;21680;52.400;16.920;2023-04-08T01:59:18;101221.73;;;4.34;94.39
35577;BME280;21680;52.400;16.920;2023-04-08T02:01:46;101224.58;;;4.31;94.67
35577;BME280;21680;52.400;16.920;2023-04-08T02:04:12;101228.48;;;4.30;94.58
35577;BME280;21680;52.400;16.920;2023-04-08T02:06:38;101232.58;;;4.27;94.39
35577;BME280;21680;52.400;16.920;2023-04-08T02:09:03;101241.80;;;4.25;94.59
35577;BME280;21680;52.400;16.920;2023-04-08T02:11:30;101244.12;;;4.22;94.57
35577;BME280;21680;52.400;16.920;2023-04-08T02:13:56;101247.14;;;4.21;94.55
35577;BME280;21680;52.400;16.920;2023-04-08T02:16:23;101246.80;;;4.17;94.42
35577;BME280;21680;52.400;16.920;2023-04-08T02:19:07;101248.42;;;4.13;94.57
35577;BME280;21680;52.400;16.920;2023-04-08T02:21:46;101250.92;;;4.11;94.51
35577;BME280;21680;52.400;16.920;2023-04-08T02:24:15;101253.77;;;4.08;94.59
35577;BME280;21680;52.400;16.920;2023-04-08T02:26:43;101252.73;;;4.04;94.53
35577;BME280;21680;52.400;16.920;2023-04-08T02:29:12;101254.17;;;4.01;94.55
35577;BME280;21680;52.400;16.920;2023-04-08T02:31:41;101259.14;;;3.98;94.71
35577;BME280;21680;52.400;16.920;2023-04-08T02:34:09;101263.77;;;3.95;94.56
35577;BME280;21680;52.400;16.920;2023-04-08T02:36:35;101268.20;;;3.93;94.60
35577;BME280;21680;52.400;16.920;2023-04-08T02:39:04;101270.52;;;3.90;94.56
35577;BME280;21680;52.400;16.920;2023-04-08T02:41:29;101276.36;;;3.87;94.66
35577;BME280;21680;52.400;16.920;2023-04-08T02:43:55;101282.02;;;3.85;94.60
35577;BME280;21680;52.400;16.920;2023-04-08T02:46:21;101284.16;;;3.83;94.53
35577;BME280;21680;52.400;16.920;2023-04-08T02:48:46;101285.95;;;3.81;94.63
35577;BME280;21680;52.400;16.920;2023-04-08T02:51:12;101287.73;;;3.78;94.69
35577;BME280;21680;52.400;16.920;2023-04-08T02:53:37;101288.80;;;3.76;94.66
35577;BME280;21680;52.400;16.920;2023-04-08T02:56:02;101296.05;;;3.75;94.50
35577;BME280;21680;52.400;16.920;2023-04-08T02:58:27;101300.30;;;3.71;94.77
35577;BME280;21680;52.400;16.920;2023-04-08T03:00:53;101302.80;;;3.68;94.72
35577;BME280;21680;52.400;16.920;2023-04-08T03:03:18;101308.99;;;3.67;94.58
35577;BME280;21680;52.400;16.920;2023-04-08T03:05:43;101314.66;;;3.65;94.58
35577;BME280;21680;52.400;16.920;2023-04-08T03:08:08;101315.37;;;3.63;94.53
35577;BME280;21680;52.400;16.920;2023-04-08T03:10:34;101316.09;;;3.60;94.69
35577;BME280;21680;52.400;16.920;2023-04-08T03:12:59;101320.52;;;3.57;94.46
35577;BME280;21680;52.400;16.920;2023-04-08T03:15:25;101321.59;;;3.53;94.70
35577;BME280;21680;52.400;16.920;2023-04-08T03:17:50;101324.61;;;3.51;94.59
35577;BME280;21680;52.400;16.920;2023-04-08T03:20:15;101326.73;;;3.49;94.57
35577;BME280;21680;52.400;16.920;2023-04-08T03:22:41;101330.98;;;3.47;94.79
35577;BME280;21680;52.400;16.920;2023-04-08T03:25:06;101334.00;;;3.44;94.60
35577;BME280;21680;52.400;16.920;2023-04-08T03:27:32;101334.18;;;3.41;94.50
35577;BME280;21680;52.400;16.920;2023-04-08T03:29:57;101334.20;;;3.36;94.51
35577;BME280;21680;52.400;16.920;2023-04-08T03:32:23;101336.33;;;3.33;94.43
35577;BME280;21680;52.400;16.920;2023-04-08T03:34:48;101335.27;;;3.29;94.45
35577;BME280;21680;52.400;16.920;2023-04-08T03:37:16;101335.27;;;3.27;94.46
35577;BME280;21680;52.400;16.920;2023-04-08T03:39:41;101332.80;;;3.26;94.77
35577;BME280;21680;52.400;16.920;2023-04-08T03:42:07;101333.88;;;3.26;94.52
35577;BME280;21680;52.400;16.920;2023-04-08T03:44:32;101335.63;;;3.30;94.77
35577;BME280;21680;52.400;16.920;2023-04-08T03:46:57;101340.05;;;3.30;94.67
35577;BME280;21680;52.400;16.920;2023-04-08T03:49:22;101341.09;;;3.33;94.79
35577;BME280;21680;52.400;16.920;2023-04-08T03:51:48;101341.63;;;3.33;94.73
35577;BME280;21680;52.400;16.920;2023-04-08T03:54:14;101344.28;;;3.31;94.73
35577;BME280;21680;52.400;16.920;2023-04-08T03:56:39;101345.17;;;3.29;94.74
35577;BME280;21680;52.400;16.920;2023-04-08T03:59:05;101347.45;;;3.29;94.64
35577;BME280;21680;52.400;16.920;2023-04-08T04:01:30;101352.59;;;3.29;94.70
35577;BME280;21680;52.400;16.920;2023-04-08T04:03:56;101353.83;;;3.25;94.63
35577;BME280;21680;52.400;16.920;2023-04-08T04:06:22;101356.84;;;3.23;94.58
35577;BME280;21680;52.400;16.920;2023-04-08T04:08:47;101358.08;;;3.22;94.83
35577;BME280;21680;52.400;16.920;2023-04-08T04:11:14;101361.44;;;3.21;94.59
35577;BME280;21680;52.400;16.920;2023-04-08T04:13:40;101364.27;;;3.20;94.74
35577;BME280;21680;52.400;16.920;2023-04-08T04:16:05;101364.09;;;3.19;94.78
35577;BME280;21680;52.400;16.920;2023-04-08T04:18:30;101361.98;;;3.16;94.76
35577;BME280;21680;52.400;16.920;2023-04-08T04:20:56;101363.73;;;3.14;94.67
35577;BME280;21680;52.400;16.920;2023-04-08T04:23:21;101364.98;;;3.11;94.57
35577;BME280;21680;52.400;16.920;2023-04-08T04:25:48;101371.16;;;3.09;94.67
35577;BME280;21680;52.400;16.920;2023-04-08T04:28:14;101373.98;;;3.08;94.56
35577;BME280;21680;52.400;16.920;2023-04-08T04:30:39;101375.58;;;3.05;94.61
35577;BME280;21680;52.400;16.920;2023-04-08T04:33:05;101380.00;;;3.04;94.66
35577;BME280;21680;52.400;16.920;2023-04-08T04:35:31;101381.23;;;3.01;94.51
35577;BME280;21680;52.400;16.920;2023-04-08T04:37:56;101383.52;;;3.01;94.82
35577;BME280;21680;52.400;16.920;2023-04-08T04:40:21;101382.47;;;3.02;94.67
35577;BME280;21680;52.400;16.920;2023-04-08T04:42:47;101384.06;;;2.99;94.58
35577;BME280;21680;52.400;16.920;2023-04-08T04:45:12;101387.23;;;2.98;94.63
35577;BME280;21680;52.400;16.920;2023-04-08T04:47:38;101390.06;;;2.99;94.84
35577;BME280;21680;52.400;16.920;2023-04-08T04:50:04;101394.83;;;2.99;94.65
35577;BME280;21680;52.400;16.920;2023-04-08T04:52:30;101392.01;;;2.97;94.79
35577;BME280;21680;52.400;16.920;2023-04-08T04:54:56;101399.77;;;2.95;94.63
35577;BME280;21680;52.400;16.920;2023-04-08T04:57:22;101404.36;;;2.93;94.50
35577;BME280;21680;52.400;16.920;2023-04-08T04:59:47;101404.19;;;2.94;94.60
35577;BME280;21680;52.400;16.920;2023-04-08T05:02:12;101408.08;;;2.97;94.75
35577;BME280;21680;52.400;16.920;2023-04-08T05:04:37;101410.89;;;3.01;94.79
35577;BME280;21680;52.400;16.920;2023-04-08T05:07:03;101406.65;;;3.06;94.94
35577;BME280;21680;52.400;16.920;2023-04-08T05:09:28;101411.95;;;3.12;94.97
35577;BME280;21680;52.400;16.920;2023-04-08T05:11:53;101411.95;;;3.18;95.01
35577;BME280;21680;52.400;16.920;2023-04-08T05:14:19;101414.59;;;3.27;95.37
35577;BME280;21680;52.400;16.920;2023-04-08T05:16:44;101418.46;;;3.37;95.02
35577;BME280;21680;52.400;16.920;2023-04-08T05:19:10;101416.69;;;3.43;95.28
35577;BME280;21680;52.400;16.920;2023-04-08T05:21:35;101415.62;;;3.48;95.08
35577;BME280;21680;52.400;16.920;2023-04-08T05:24:00;101416.31;;;3.50;95.07
35577;BME280;21680;52.400;16.920;2023-04-08T05:26:26;101419.66;;;3.55;94.99
35577;BME280;21680;52.400;16.920;2023-04-08T05:28:51;101425.48;;;3.62;95.31
35577;BME280;21680;52.400;16.920;2023-04-08T05:31:17;101424.92;;;3.71;95.44
35577;BME280;21680;52.400;16.920;2023-04-08T05:33:43;101429.14;;;3.79;95.30
35577;BME280;21680;52.400;16.920;2023-04-08T05:36:11;101427.52;;;3.86;95.16
35577;BME280;21680;52.400;16.920;2023-04-08T05:38:38;101430.34;;;3.90;95.20
35577;BME280;21680;52.400;16.920;2023-04-08T05:41:04;101431.03;;;3.95;95.09
35577;BME280;21680;52.400;16.920;2023-04-08T05:43:32;101435.27;;;3.99;95.33
35577;BME280;21680;52.400;16.920;2023-04-08T05:45:57;101435.42;;;4.04;95.37
35577;BME280;21680;52.400;16.920;2023-04-08T05:48:22;101441.75;;;4.10;95.51
35577;BME280;21680;52.400;16.920;2023-04-08T05:50:47;101442.80;;;4.13;95.40
35577;BME280;21680;52.400;16.920;2023-04-08T05:53:13;101443.14;;;4.18;95.47
35577;BME280;21680;52.400;16.920;2023-04-08T05:55:39;101449.13;;;4.24;95.48
35577;BME280;21680;52.400;16.920;2023-04-08T05:58:05;101450.88;;;4.30;95.47
35577;BME280;21680;52.400;16.920;2023-04-08T06:00:30;101451.20;;;4.33;95.46
35577;BME280;21680;52.400;16.920;2023-04-08T06:02:55;101462.68;;;4.38;95.55
35577;BME280;21680;52.400;16.920;2023-04-08T06:05:21;101464.27;;;4.42;95.41
35577;BME280;21680;52.400;16.920;2023-04-08T06:07:46;101463.00;;;4.45;95.57
35577;BME280;21680;52.400;16.920;2023-04-08T06:10:11;101464.04;;;4.49;95.81
35577;BME280;21680;52.400;16.920;2023-04-08T06:12:39;101464.72;;;4.55;95.67
35577;BME280;21680;52.400;16.920;2023-04-08T06:15:06;101465.92;;;4.62;95.85
35577;BME280;21680;52.400;16.920;2023-04-08T06:17:32;101475.06;;;4.71;95.99
35577;BME280;21680;52.400;16.920;2023-04-08T06:20:00;101478.20;;;4.81;96.00
35577;BME280;21680;52.400;16.920;2023-04-08T06:22:25;101480.27;;;4.88;96.04
35577;BME280;21680;52.400;16.920;2023-04-08T06:24:50;101486.08;;;4.94;95.85
35577;BME280;21680;52.400;16.920;2023-04-08T06:27:16;101488.88;;;4.98;95.77
35577;BME280;21680;52.400;16.920;2023-04-08T06:29:41;101492.59;;;4.98;95.72
35577;BME280;21680;52.400;16.920;2023-04-08T06:32:06;101495.95;;;5.00;95.84
35577;BME280;21680;52.400;16.920;2023-04-08T06:34:32;101495.04;;;5.03;95.84
35577;BME280;21680;52.400;16.920;2023-04-08T06:36:57;101499.24;;;5.10;95.99
35577;BME280;21680;52.400;16.920;2023-04-08T06:39:23;101503.11;;;5.15;95.90
35577;BME280;21680;52.400;16.920;2023-04-08T06:41:51;101503.74;;;5.20;96.05
35577;BME280;21680;52.400;16.920;2023-04-08T06:44:16;101512.91;;;5.26;96.03
35577;BME280;21680;52.400;16.920;2023-04-08T06:46:41;101517.15;;;5.28;95.96
35577;BME280;21680;52.400;16.920;2023-04-08T06:49:07;101513.23;;;5.29;95.77
35577;BME280;21680;52.400;16.920;2023-04-08T06:51:32;101519.22;;;5.35;95.94
35577;BME280;21680;52.400;16.920;2023-04-08T06:53:57;101522.17;;;5.42;95.88
35577;BME280;21680;52.400;16.920;2023-04-08T06:56:23;101521.78;;;5.46;96.00
35577;BME280;21680;52.400;16.920;2023-04-08T06:58:50;101520.70;;;5.47;95.84
35577;BME280;21680;52.400;16.920;2023-04-08T07:01:18;101519.27;;;5.50;95.84
35577;BME280;21680;52.400;16.920;2023-04-08T07:03:51;101521.36;;;5.54;95.90
35577;BME280;21680;52.400;16.920;2023-04-08T07:06:16;101526.05;;;5.65;96.08
35577;BME280;21680;52.400;16.920;2023-04-08T07:08:42;101527.96;;;5.70;95.98
35577;BME280;21680;52.400;16.920;2023-04-08T07:11:07;101535.52;;;5.76;96.19
35577;BME280;21680;52.400;16.920;2023-04-08T07:13:32;101535.83;;;5.82;95.91
35577;BME280;21680;52.400;16.920;2023-04-08T07:15:58;101536.50;;;5.87;95.87
35577;BME280;21680;52.400;16.920;2023-04-08T07:18:23;101540.53;;;5.95;96.04
35577;BME280;21680;52.400;16.920;2023-04-08T07:20:51;101540.70;;;5.95;95.74
35577;BME280;21680;52.400;16.920;2023-04-08T07:23:18;101542.65;;;5.95;95.61
35577;BME280;21680;52.400;16.920;2023-04-08T07:25:44;101544.00;;;6.02;95.87
35577;BME280;21680;52.400;16.920;2023-04-08T07:28:09;101546.98;;;6.06;95.81
35577;BME280;21680;52.400;16.920;2023-04-08T07:30:35;101550.74;;;6.01;95.52
35577;BME280;21680;52.400;16.920;2023-04-08T07:33:00;101549.48;;;6.03;95.57
35577;BME280;21680;52.400;16.920;2023-04-08T07:35:25;101552.75;;;5.96;95.16
35577;BME280;21680;52.400;16.920;2023-04-08T07:37:52;101552.20;;;5.98;95.44
35577;BME280;21680;52.400;16.920;2023-04-08T07:40:18;101553.86;;;6.09;95.51
35577;BME280;21680;52.400;16.920;2023-04-08T07:42:43;101555.70;;;6.19;95.56
35577;BME280;21680;52.400;16.920;2023-04-08T07:45:08;101555.45;;;6.26;95.51
35577;BME280;21680;52.400;16.920;2023-04-08T07:47:34;101560.67;;;6.34;95.46
35577;BME280;21680;52.400;16.920;2023-04-08T07:49:59;101561.67;;;6.40;95.31
35577;BME280;21680;52.400;16.920;2023-04-08T07:52:25;101560.87;;;6.48;95.24
35577;BME280;21680;52.400;16.920;2023-04-08T07:54:50;101569.52;;;6.54;95.07
35577;BME280;21680;52.400;16.920;2023-04-08T07:57:16;101569.16;;;6.53;95.00
35577;BME280;21680;52.400;16.920;2023-04-08T07:59:41;101571.67;;;6.51;94.88
35577;BME280;21680;52.400;16.920;2023-04-08T08:02:06;101576.46;;;6.51;94.71
35577;BME280;21680;52.400;16.920;2023-04-08T08:04:31;101578.59;;;6.52;94.68
35577;BME280;21680;52.400;16.920;2023-04-08T08:06:57;101584.81;;;6.50;94.46
35577;BME280;21680;52.400;16.920;2023-04-08T08:09:22;101585.27;;;6.58;94.71
35577;BME280;21680;52.400;16.920;2023-04-08T08:11:48;101589.30;;;6.63;94.69
35577;BME280;21680;52.400;16.920;2023-04-08T08:14:13;101592.20;;;6.71;94.55
35577;BME280;21680;52.400;16.920;2023-04-08T08:16:39;101592.46;;;6.79;94.59
35577;BME280;21680;52.400;16.920;2023-04-08T08:19:06;101592.48;;;6.78;94.40
35577;BME280;21680;52.400;16.920;2023-04-08T08:21:35;101596.08;;;6.73;94.07
35577;BME280;21680;52.400;16.920;2023-04-08T08:24:01;101597.12;;;6.76;94.08
35577;BME280;21680;52.400;16.920;2023-04-08T08:26:26;101599.08;;;6.75;94.00
35577;BME280;21680;52.400;16.920;2023-04-08T08:28:53;101605.19;;;6.70;93.82
35577;BME280;21680;52.400;16.920;2023-04-08T08:31:18;101604.96;;;6.73;93.88
35577;BME280;21680;52.400;16.920;2023-04-08T08:33:43;101605.08;;;6.78;93.88
35577;BME280;21680;52.400;16.920;2023-04-08T08:36:09;101607.67;;;6.85;93.82
35577;BME280;21680;52.400;16.920;2023-04-08T08:38:34;101604.79;;;6.88;93.60
35577;BME280;21680;52.400;16.920;2023-04-08T08:41:00;101608.29;;;6.92;93.60
35577;BME280;21680;52.400;16.920;2023-04-08T08:43:28;101608.67;;;7.03;93.71
35577;BME280;21680;52.400;16.920;2023-04-08T08:45:53;101602.52;;;7.11;93.54
35577;BME280;21680;52.400;16.920;2023-04-08T08:48:19;101605.20;;;7.23;93.64
35577;BME280;21680;52.400;16.920;2023-04-08T08:50:44;101605.04;;;7.33;93.54
35577;BME280;21680;52.400;16.920;2023-04-08T08:53:10;101605.05;;;7.33;93.07
35577;BME280;21680;52.400;16.920;2023-04-08T08:55:35;101605.55;;;7.35;93.07
35577;BME280;21680;52.400;16.920;2023-04-08T08:58:02;101606.41;;;7.37;92.89
35577;BME280;21680;52.400;16.920;2023-04-08T09:00:40;101605.00;;;7.48;93.12
35577;BME280;21680;52.400;16.920;2023-04-08T09:08:34;101612.95;;;7.52;92.32
35577;BME280;21680;52.400;16.920;2023-04-08T09:13:35;101619.61;;;7.58;92.18
35577;BME280;21680;52.400;16.920;2023-04-08T09:16:03;101621.30;;;7.63;92.25
35577;BME280;21680;52.400;16.920;2023-04-08T09:18:30;101619.25;;;7.69;92.09
35577;BME280;21680;52.400;16.920;2023-04-08T09:20:56;101624.27;;;7.78;92.00
35577;BME280;21680;52.400;16.920;2023-04-08T09:23:23;101622.30;;;7.78;91.71
35577;BME280;21680;52.400;16.920;2023-04-08T09:25:49;101618.20;;;7.88;91.90
35577;BME280;21680;52.400;16.920;2023-04-08T09:28:18;101620.67;;;7.99;91.76
35577;BME280;21680;52.400;16.920;2023-04-08T09:30:44;101621.20;;;8.10;91.76
35577;BME280;21680;52.400;16.920;2023-04-08T09:33:10;101617.74;;;8.14;91.47
35577;BME280;21680;52.400;16.920;2023-04-08T09:35:35;101623.15;;;8.11;91.18
35577;BME280;21680;52.400;16.920;2023-04-08T09:38:00;101624.70;;;8.14;91.26
35577;BME280;21680;52.400;16.920;2023-04-08T09:40:26;101626.20;;;8.20;91.11
35577;BME280;21680;52.400;16.920;2023-04-08T09:42:53;101624.02;;;8.33;91.37
35577;BME280;21680;52.400;16.920;2023-04-08T09:45:19;101623.70;;;8.41;90.99
35577;BME280;21680;52.400;16.920;2023-04-08T09:47:54;101628.77;;;8.37;90.69
35577;BME280;21680;52.400;16.920;2023-04-08T09:50:25;101627.19;;;8.36;90.34
35577;BME280;21680;52.400;16.920;2023-04-08T09:52:55;101629.23;;;8.40;90.55
35577;BME280;21680;52.400;16.920;2023-04-08T09:55:21;101624.08;;;8.49;90.67
35577;BME280;21680;52.400;16.920;2023-04-08T09:57:56;101622.81;;;8.59;90.56
35577;BME280;21680;52.400;16.920;2023-04-08T10:00:37;101623.91;;;8.75;90.59
35577;BME280;21680;52.400;16.920;2023-04-08T10:03:48;101623.37;;;9.02;90.73
35577;BME280;21680;52.400;16.920;2023-04-08T10:05:53;101617.08;;;9.29;90.56
35577;BME280;21680;52.400;16.920;2023-04-08T10:08:22;101618.40;;;9.33;90.10
35577;BME280;21680;52.400;16.920;2023-04-08T10:10:47;101621.58;;;9.50;90.35
35577;BME280;21680;52.400;16.920;2023-04-08T10:13:13;101619.98;;;9.72;90.27
35577;BME280;21680;52.400;16.920;2023-04-08T10:15:41;101617.27;;;9.88;89.93
35577;BME280;21680;52.400;16.920;2023-04-08T10:23:01;101624.61;;;10.30;89.04
35577;BME280;21680;52.400;16.920;2023-04-08T10:25:31;101626.36;;;10.31;88.99
35577;BME280;21680;52.400;16.920;2023-04-08T10:27:57;101630.00;;;10.28;88.58
35577;BME280;21680;52.400;16.920;2023-04-08T10:32:58;101633.26;;;9.91;87.42
35577;BME280;21680;52.400;16.920;2023-04-08T10:35:31;101631.16;;;9.96;87.62
35577;BME280;21680;52.400;16.920;2023-04-08T10:37:58;101631.29;;;9.98;87.43
35577;BME280;21680;52.400;16.920;2023-04-08T10:40:24;101632.39;;;10.04;87.32
35577;BME280;21680;52.400;16.920;2023-04-08T10:42:56;101628.64;;;10.04;87.01
35577;BME280;21680;52.400;16.920;2023-04-08T10:45:22;101630.38;;;10.13;87.11
35577;BME280;21680;52.400;16.920;2023-04-08T10:47:47;101627.73;;;10.33;87.06
35577;BME280;21680;52.400;16.920;2023-04-08T10:50:14;101626.16;;;10.51;86.83
35577;BME280;21680;52.400;16.920;2023-04-08T10:52:47;101625.40;;;10.65;86.63
35577;BME280;21680;52.400;16.920;2023-04-08T10:55:13;101623.00;;;10.80;86.69
35577;BME280;21680;52.400;16.920;2023-04-08T10:57:39;101621.24;;;10.97;86.63
35577;BME280;21680;52.400;16.920;2023-04-08T11:00:10;101622.84;;;10.98;85.77
35577;BME280;21680;52.400;16.920;2023-04-08T11:02:39;101625.63;;;10.94;85.49
35577;BME280;21680;52.400;16.920;2023-04-08T11:05:05;101625.40;;;10.90;85.24
35577;BME280;21680;52.400;16.920;2023-04-08T11:07:31;101628.67;;;10.82;84.74
35577;BME280;21680;52.400;16.920;2023-04-08T11:09:56;101627.28;;;10.74;84.59
35577;BME280;21680;52.400;16.920;2023-04-08T11:12:22;101627.38;;;10.70;84.30
35577;BME280;21680;52.400;16.920;2023-04-08T11:14:47;101627.98;;;10.75;84.41
35577;BME280;21680;52.400;16.920;2023-04-08T11:17:15;101623.85;;;10.88;84.30
35577;BME280;21680;52.400;16.920;2023-04-08T11:19:42;101620.52;;;10.98;84.00
35577;BME280;21680;52.400;16.920;2023-04-08T11:22:07;101619.86;;;11.20;83.91
35577;BME280;21680;52.400;16.920;2023-04-08T11:24:35;101616.48;;;11.36;83.26
35577;BME280;21680;52.400;16.920;2023-04-08T11:27:03;101617.48;;;11.50;83.17
35577;BME280;21680;52.400;16.920;2023-04-08T11:29:30;101620.11;;;11.58;82.89
35577;BME280;21680;52.400;16.920;2023-04-08T11:31:56;101624.39;;;11.69;82.76
35577;BME280;21680;52.400;16.920;2023-04-08T11:34:22;101624.50;;;11.77;82.25
35577;BME280;21680;52.400;16.920;2023-04-08T11:36:49;101628.58;;;11.73;81.80
35577;BME280;21680;52.400;16.920;2023-04-08T11:39:15;101626.74;;;11.68;81.42
35577;BME280;21680;52.400;16.920;2023-04-08T11:41:40;101628.52;;;11.68;81.33
35577;BME280;21680;52.400;16.920;2023-04-08T11:44:05;101629.21;;;11.64;80.86
35577;BME280;21680;52.400;16.920;2023-04-08T11:46:31;101632.05;;;11.54;80.45
35577;BME280;21680;52.400;16.920;2023-04-08T11:49:02;101632.89;;;11.50;80.37
35577;BME280;21680;52.400;16.920;2023-04-08T11:51:27;101635.09;;;11.48;80.35
35577;BME280;21680;52.400;16.920;2023-04-08T11:53:53;101634.50;;;11.38;79.84
35577;BME280;21680;52.400;16.920;2023-04-08T11:56:21;101635.19;;;11.27;79.57
35577;BME280;21680;52.400;16.920;2023-04-08T11:58:48;101636.91;;;11.18;79.40
35577;BME280;21680;52.400;16.920;2023-04-08T12:01:14;101638.15;;;11.13;79.29
35577;BME280;21680;52.400;16.920;2023-04-08T12:03:53;101635.14;;;11.11;79.22
35577;BME280;21680;52.400;16.920;2023-04-08T12:06:18;101631.95;;;10.98;78.68
35577;BME280;21680;52.400;16.920;2023-04-08T12:08:43;101636.34;;;10.89;78.57
35577;BME280;21680;52.400;16.920;2023-04-08T12:11:09;101638.39;;;10.86;78.57
35577;BME280;21680;52.400;16.920;2023-04-08T12:13:35;101639.06;;;10.87;78.58
35577;BME280;21680;52.400;16.920;2023-04-08T12:16:00;101637.48;;;10.93;78.43
35577;BME280;21680;52.400;16.920;2023-04-08T12:18:25;101633.42;;;11.03;78.45
35577;BME280;21680;52.400;16.920;2023-04-08T12:20:51;101629.01;;;11.13;78.35
35577;BME280;21680;52.400;16.920;2023-04-08T12:23:16;101627.02;;;11.13;77.96
35577;BME280;21680;52.400;16.920;2023-04-08T12:25:41;101625.30;;;11.17;78.03
35577;BME280;21680;52.400;16.920;2023-04-08T12:28:07;101619.38;;;11.35;78.15
35577;BME280;21680;52.400;16.920;2023-04-08T12:30:33;101622.06;;;11.47;77.81
35577;BME280;21680;52.400;16.920;2023-04-08T12:32:59;101626.25;;;11.73;77.68
35577;BME280;21680;52.400;16.920;2023-04-08T12:35:24;101621.85;;;11.98;77.69
35577;BME280;21680;52.400;16.920;2023-04-08T12:37:49;101620.36;;;12.36;77.75
35577;BME280;21680;52.400;16.920;2023-04-08T12:40:15;101611.31;;;12.63;77.51
35577;BME280;21680;52.400;16.920;2023-04-08T12:42:40;101612.02;;;12.83;77.04
35577;BME280;21680;52.400;16.920;2023-04-08T12:45:06;101616.98;;;12.94;75.66
35577;BME280;21680;52.400;16.920;2023-04-08T12:47:32;101618.53;;;12.96;75.53
35577;BME280;21680;52.400;16.920;2023-04-08T12:49:57;101616.30;;;13.07;75.50
35577;BME280;21680;52.400;16.920;2023-04-08T12:52:22;101611.63;;;13.31;75.31
35577;BME280;21680;52.400;16.920;2023-04-08T12:54:48;101614.73;;;13.47;74.64
35577;BME280;21680;52.400;16.920;2023-04-08T12:57:13;101607.89;;;13.44;74.24
35577;BME280;21680;52.400;16.920;2023-04-08T12:59:38;101609.19;;;13.43;74.17
35577;BME280;21680;52.400;16.920;2023-04-08T13:02:04;101607.95;;;13.51;73.89
35577;BME280;21680;52.400;16.920;2023-04-08T13:04:29;101604.64;;;13.66;73.77